sensor_id;sensor_type;location;lat;lon;timestamp;pressure;altitude;pressure_sealevel;temperature
74485;BMP280;62942;52.462;10.846;2024-03-17T00:00:45;101500;;;
74485;BMP280;62942;52.462;10.846;2024-03-17T00:01:45;101500;;;
74485;BMP280;62942;52.462;10.846;2024-03-17T00:02:55;101510;;;
74485;BMP280;62942;52.462;10.846;2024-03-17T00:03:55;101520;;;
74485;BMP280;62942;52.462;10.846;2024-03-17T00:04:55;101520;;;
74485;BMP280;62942;52.462;10.846;2024-03-17T00:06:05;101520;;;
74485;BMP280;62942;52.462;10.846;2024-03-17T00:07:05;101510;;;
74485;BMP280;62942;52.462;10.846;2024-03-17T00:08:15;101510;;;
74485;BMP280;62942;52.462;10.846;2024-03-17T00:09:25;101520;;;
74485;BMP280;62942;52.462;10.846;2024-03-17T00:10:25;101520;;;
74485;BMP280;62942;52.462;10.846;2024-03-17T00:11:35;101510;;;
74485;BMP280;62942;52.462;10.846;2024-03-17T00:12:45;101520;;;
74485;BMP280;62942;52.462;10.846;2024-03-17T00:13:45;101520;;;
74485;BMP280;62942;52.462;10.846;2024-03-17T00:14:55;101520;;;
74485;BMP280;62942;52.462;10.846;2024-03-17T00:16:05;101520;;;
74485;BMP280;62942;52.462;10.846;2024-03-17T00:17:05;101520;;;
74485;BMP280;62942;52.462;10.846;2024-03-17T00:18:15;101530;;;
74485;BMP280;62942;52.462;10.846;2024-03-17T00:19:15;101520;;;
74485;BMP280;62942;52.462;10.846;2024-03-17T00:20:25;101520;;;
74485;BMP280;62942;52.462;10.846;2024-03-17T00:21:25;101520;;;
74485;BMP280;62942;52.462;10.846;2024-03-17T00:22:35;101520;;;
74485;BMP280;62942;52.462;10.846;2024-03-17T00:23:46;101520;;;
74485;BMP280;62942;52.462;10.846;2024-03-17T00:24:45;101520;;;
74485;BMP280;62942;52.462;10.846;2024-03-17T00:25:45;101520;;;
74485;BMP280;62942;52.462;10.846;2024-03-17T00:26:55;101520;;;
74485;BMP280;62942;52.462;10.846;2024-03-17T00:27:55;101520;;;
74485;BMP280;62942;52.462;10.846;2024-03-17T00:29:05;101520;;;
74485;BMP280;62942;52.462;10.846;2024-03-17T00:30:15;101510;;;
74485;BMP280;62942;52.462;10.846;2024-03-17T00:31:15;101510;;;
74485;BMP280;62942;52.462;10.846;2024-03-17T00:32:15;101510;;;
74485;BMP280;62942;52.462;10.846;2024-03-17T00:33:15;101520;;;
74485;BMP280;62942;52.462;10.846;2024-03-17T00:34:25;101520;;;
74485;BMP280;62942;52.462;10.846;2024-03-17T00:35:25;101520;;;
74485;BMP280;62942;52.462;10.846;2024-03-17T00:36:35;101520;;;
74485;BMP280;62942;52.462;10.846;2024-03-17T00:37:35;101520;;;
74485;BMP280;62942;52.462;10.846;2024-03-17T00:38:45;101530;;;
74485;BMP280;62942;52.462;10.846;2024-03-17T00:39:55;101520;;;
74485;BMP280;62942;52.462;10.846;2024-03-17T00:40:55;101520;;;
74485;BMP280;62942;52.462;10.846;2024-03-17T00:42:05;101520;;;
74485;BMP280;62942;52.462;10.846;2024-03-17T00:43:05;101520;;;
74485;BMP280;62942;52.462;10.846;2024-03-17T00:44:15;101530;;;
74485;BMP280;62942;52.462;10.846;2024-03-17T00:45:15;101520;;;
74485;BMP280;62942;52.462;10.846;2024-03-17T00:46:15;101520;;;
74485;BMP280;62942;52.462;10.846;2024-03-17T00:47:25;101520;;;
74485;BMP280;62942;52.462;10.846;2024-03-17T00:48:25;101520;;;
74485;BMP280;62942;52.462;10.846;2024-03-17T00:49:35;101520;;;
74485;BMP280;62942;52.462;10.846;2024-03-17T00:50:35;101520;;;
74485;BMP280;62942;52.462;10.846;2024-03-17T00:51:45;101520;;;
74485;BMP280;62942;52.462;10.846;2024-03-17T00:52:45;101520;;;
74485;BMP280;62942;52.462;10.846;2024-03-17T00:53:45;101520;;;
74485;BMP280;62942;52.462;10.846;2024-03-17T00:54:55;101530;;;
74485;BMP280;62942;52.462;10.846;2024-03-17T00:55:55;101530;;;
74485;BMP280;62942;52.462;10.846;2024-03-17T00:57:05;101530;;;
74485;BMP280;62942;52.462;10.846;2024-03-17T00:58:15;101530;;;
74485;BMP280;62942;52.462;10.846;2024-03-17T00:59:15;101530;;;
74485;BMP280;62942;52.462;10.846;2024-03-17T01:00:15;101530;;;
74485;BMP280;62942;52.462;10.846;2024-03-17T01:01:25;101530;;;
74485;BMP280;62942;52.462;10.846;2024-03-17T01:02:25;101530;;;
74485;BMP280;62942;52.462;10.846;2024-03-17T01:03:25;101530;;;
74485;BMP280;62942;52.462;10.846;2024-03-17T01:04:35;101540;;;
74485;BMP280;62942;52.462;10.846;2024-03-17T01:05:45;101540;;;
74485;BMP280;62942;52.462;10.846;2024-03-17T01:06:45;101540;;;
74485;BMP280;62942;52.462;10.846;2024-03-17T01:07:55;101530;;;
74485;BMP280;62942;52.462;10.846;2024-03-17T01:09:05;101540;;;
74485;BMP280;62942;52.462;10.846;2024-03-17T01:10:05;101540;;;
74485;BMP280;62942;52.462;10.846;2024-03-17T01:11:15;101540;;;
74485;BMP280;62942;52.462;10.846;2024-03-17T01:12:25;101530;;;
74485;BMP280;62942;52.462;10.846;2024-03-17T01:13:25;101540;;;
74485;BMP280;62942;52.462;10.846;2024-03-17T01:14:25;101540;;;
74485;BMP280;62942;52.462;10.846;2024-03-17T01:15:25;101540;;;
74485;BMP280;62942;52.462;10.846;2024-03-17T01:16:35;101540;;;
74485;BMP280;62942;52.462;10.846;2024-03-17T01:17:45;101530;;;
74485;BMP280;62942;52.462;10.846;2024-03-17T01:18:55;101540;;;
74485;BMP280;62942;52.462;10.846;2024-03-17T01:20:07;101530;;;
74485;BMP280;62942;52.462;10.846;2024-03-17T01:21:15;101540;;;
74485;BMP280;62942;52.462;10.846;2024-03-17T01:22:15;101530;;;
74485;BMP280;62942;52.462;10.846;2024-03-17T01:23:25;101530;;;
74485;BMP280;62942;52.462;10.846;2024-03-17T01:24:35;101540;;;
74485;BMP280;62942;52.462;10.846;2024-03-17T01:25:45;101540;;;
74485;BMP280;62942;52.462;10.846;2024-03-17T01:26:55;101540;;;
74485;BMP280;62942;52.462;10.846;2024-03-17T01:27:55;101530;;;
74485;BMP280;62942;52.462;10.846;2024-03-17T01:29:05;101530;;;
74485;BMP280;62942;52.462;10.846;2024-03-17T01:30:15;101530;;;
74485;BMP280;62942;52.462;10.846;2024-03-17T01:31:15;101540;;;
74485;BMP280;62942;52.462;10.846;2024-03-17T01:32:15;101540;;;
74485;BMP280;62942;52.462;10.846;2024-03-17T01:33:25;101540;;;
74485;BMP280;62942;52.462;10.846;2024-03-17T01:34:25;101540;;;
74485;BMP280;62942;52.462;10.846;2024-03-17T01:35:25;101540;;;
74485;BMP280;62942;52.462;10.846;2024-03-17T01:36:25;101540;;;
74485;BMP280;62942;52.462;10.846;2024-03-17T01:37:25;101530;;;
74485;BMP280;62942;52.462;10.846;2024-03-17T01:38:25;101540;;;
74485;BMP280;62942;52.462;10.846;2024-03-17T01:39:35;101540;;;
74485;BMP280;62942;52.462;10.846;2024-03-17T01:40:35;101530;;;
74485;BMP280;62942;52.462;10.846;2024-03-17T01:41:35;101530;;;
74485;BMP280;62942;52.462;10.846;2024-03-17T01:42:45;101530;;;
74485;BMP280;62942;52.462;10.846;2024-03-17T01:43:45;101530;;;
74485;BMP280;62942;52.462;10.846;2024-03-17T01:44:45;101530;;;
74485;BMP280;62942;52.462;10.846;2024-03-17T01:45:55;101530;;;
74485;BMP280;62942;52.462;10.846;2024-03-17T01:47:05;101530;;;
74485;BMP280;62942;52.462;10.846;2024-03-17T01:48:12;101530;;;
74485;BMP280;62942;52.462;10.846;2024-03-17T01:49:15;101540;;;
74485;BMP280;62942;52.462;10.846;2024-03-17T01:50:15;101540;;;
74485;BMP280;62942;52.462;10.846;2024-03-17T01:51:15;101540;;;
74485;BMP280;62942;52.462;10.846;2024-03-17T01:52:25;101530;;;
74485;BMP280;62942;52.462;10.846;2024-03-17T01:53:35;101530;;;
74485;BMP280;62942;52.462;10.846;2024-03-17T01:54:35;101530;;;
74485;BMP280;62942;52.462;10.846;2024-03-17T01:55:36;101530;;;
74485;BMP280;62942;52.462;10.846;2024-03-17T01:56:45;101530;;;
74485;BMP280;62942;52.462;10.846;2024-03-17T01:57:55;101530;;;
74485;BMP280;62942;52.462;10.846;2024-03-17T01:58:55;101530;;;
74485;BMP280;62942;52.462;10.846;2024-03-17T02:00:05;101530;;;
74485;BMP280;62942;52.462;10.846;2024-03-17T02:01:05;101530;;;
74485;BMP280;62942;52.462;10.846;2024-03-17T02:02:15;101530;;;
74485;BMP280;62942;52.462;10.846;2024-03-17T02:03:15;101530;;;
74485;BMP280;62942;52.462;10.846;2024-03-17T02:04:25;101530;;;
74485;BMP280;62942;52.462;10.846;2024-03-17T02:05:26;101520;;;
74485;BMP280;62942;52.462;10.846;2024-03-17T02:06:25;101530;;;
74485;BMP280;62942;52.462;10.846;2024-03-17T02:07:25;101530;;;
74485;BMP280;62942;52.462;10.846;2024-03-17T02:08:51;101530;;;
74485;BMP280;62942;52.462;10.846;2024-03-17T02:09:45;101520;;;
74485;BMP280;62942;52.462;10.846;2024-03-17T02:10:45;101530;;;
74485;BMP280;62942;52.462;10.846;2024-03-17T02:11:55;101530;;;
74485;BMP280;62942;52.462;10.846;2024-03-17T02:12:55;101520;;;
74485;BMP280;62942;52.462;10.846;2024-03-17T02:13:55;101530;;;
74485;BMP280;62942;52.462;10.846;2024-03-17T02:14:55;101530;;;
74485;BMP280;62942;52.462;10.846;2024-03-17T02:16:05;101540;;;
74485;BMP280;62942;52.462;10.846;2024-03-17T02:17:15;101530;;;
74485;BMP280;62942;52.462;10.846;2024-03-17T02:18:15;101540;;;
74485;BMP280;62942;52.462;10.846;2024-03-17T02:19:15;101540;;;
74485;BMP280;62942;52.462;10.846;2024-03-17T02:20:25;101530;;;
74485;BMP280;62942;52.462;10.846;2024-03-17T02:21:25;101540;;;
74485;BMP280;62942;52.462;10.846;2024-03-17T02:22:25;101540;;;
74485;BMP280;62942;52.462;10.846;2024-03-17T02:23:35;101540;;;
74485;BMP280;62942;52.462;10.846;2024-03-17T02:24:35;101540;;;
74485;BMP280;62942;52.462;10.846;2024-03-17T02:25:45;101540;;;
74485;BMP280;62942;52.462;10.846;2024-03-17T02:26:55;101550;;;
74485;BMP280;62942;52.462;10.846;2024-03-17T02:27:55;101540;;;
74485;BMP280;62942;52.462;10.846;2024-03-17T02:28:55;101540;;;
74485;BMP280;62942;52.462;10.846;2024-03-17T02:30:05;101540;;;
74485;BMP280;62942;52.462;10.846;2024-03-17T02:31:15;101550;;;
74485;BMP280;62942;52.462;10.846;2024-03-17T02:32:25;101540;;;
74485;BMP280;62942;52.462;10.846;2024-03-17T02:33:25;101540;;;
74485;BMP280;62942;52.462;10.846;2024-03-17T02:34:35;101540;;;
74485;BMP280;62942;52.462;10.846;2024-03-17T02:35:35;101540;;;
74485;BMP280;62942;52.462;10.846;2024-03-17T02:36:35;101540;;;
74485;BMP280;62942;52.462;10.846;2024-03-17T02:37:45;101540;;;
74485;BMP280;62942;52.462;10.846;2024-03-17T02:38:45;101540;;;
74485;BMP280;62942;52.462;10.846;2024-03-17T02:39:55;101540;;;
74485;BMP280;62942;52.462;10.846;2024-03-17T02:41:05;101540;;;
74485;BMP280;62942;52.462;10.846;2024-03-17T02:42:15;101540;;;
74485;BMP280;62942;52.462;10.846;2024-03-17T02:43:25;101540;;;
74485;BMP280;62942;52.462;10.846;2024-03-17T02:44:25;101540;;;
74485;BMP280;62942;52.462;10.846;2024-03-17T02:45:35;101540;;;
74485;BMP280;62942;52.462;10.846;2024-03-17T02:46:45;101540;;;
74485;BMP280;62942;52.462;10.846;2024-03-17T02:47:45;101540;;;
74485;BMP280;62942;52.462;10.846;2024-03-17T02:48:48;101540;;;
74485;BMP280;62942;52.462;10.846;2024-03-17T02:49:55;101540;;;
74485;BMP280;62942;52.462;10.846;2024-03-17T02:50:55;101540;;;
74485;BMP280;62942;52.462;10.846;2024-03-17T02:51:55;101540;;;
74485;BMP280;62942;52.462;10.846;2024-03-17T02:53:05;101540;;;
74485;BMP280;62942;52.462;10.846;2024-03-17T02:54:05;101540;;;
74485;BMP280;62942;52.462;10.846;2024-03-17T02:55:05;101550;;;
74485;BMP280;62942;52.462;10.846;2024-03-17T02:56:15;101550;;;
74485;BMP280;62942;52.462;10.846;2024-03-17T02:57:25;101550;;;
74485;BMP280;62942;52.462;10.846;2024-03-17T02:58:35;101550;;;
74485;BMP280;62942;52.462;10.846;2024-03-17T02:59:35;101550;;;
74485;BMP280;62942;52.462;10.846;2024-03-17T03:00:45;101560;;;
74485;BMP280;62942;52.462;10.846;2024-03-17T03:01:45;101540;;;
74485;BMP280;62942;52.462;10.846;2024-03-17T03:02:55;101550;;;
74485;BMP280;62942;52.462;10.846;2024-03-17T03:03:55;101550;;;
74485;BMP280;62942;52.462;10.846;2024-03-17T03:05:05;101550;;;
74485;BMP280;62942;52.462;10.846;2024-03-17T03:06:15;101550;;;
74485;BMP280;62942;52.462;10.846;2024-03-17T03:07:15;101550;;;
74485;BMP280;62942;52.462;10.846;2024-03-17T03:08:15;101550;;;
74485;BMP280;62942;52.462;10.846;2024-03-17T03:09:25;101550;;;
74485;BMP280;62942;52.462;10.846;2024-03-17T03:10:35;101550;;;
74485;BMP280;62942;52.462;10.846;2024-03-17T03:11:45;101550;;;
74485;BMP280;62942;52.462;10.846;2024-03-17T03:12:55;101540;;;
74485;BMP280;62942;52.462;10.846;2024-03-17T03:14:05;101540;;;
74485;BMP280;62942;52.462;10.846;2024-03-17T03:15:15;101540;;;
74485;BMP280;62942;52.462;10.846;2024-03-17T03:16:25;101550;;;
74485;BMP280;62942;52.462;10.846;2024-03-17T03:17:25;101550;;;
74485;BMP280;62942;52.462;10.846;2024-03-17T03:18:35;101550;;;
74485;BMP280;62942;52.462;10.846;2024-03-17T03:19:35;101540;;;
74485;BMP280;62942;52.462;10.846;2024-03-17T03:20:49;101540;;;
74485;BMP280;62942;52.462;10.846;2024-03-17T03:21:45;101550;;;
74485;BMP280;62942;52.462;10.846;2024-03-17T03:22:55;101550;;;
74485;BMP280;62942;52.462;10.846;2024-03-17T03:23:55;101550;;;
74485;BMP280;62942;52.462;10.846;2024-03-17T03:24:55;101540;;;
74485;BMP280;62942;52.462;10.846;2024-03-17T03:26:05;101540;;;
74485;BMP280;62942;52.462;10.846;2024-03-17T03:27:05;101550;;;
74485;BMP280;62942;52.462;10.846;2024-03-17T03:28:05;101540;;;
74485;BMP280;62942;52.462;10.846;2024-03-17T03:29:15;101550;;;
74485;BMP280;62942;52.462;10.846;2024-03-17T03:30:15;101540;;;
74485;BMP280;62942;52.462;10.846;2024-03-17T03:31:15;101550;;;
74485;BMP280;62942;52.462;10.846;2024-03-17T03:32:25;101540;;;
74485;BMP280;62942;52.462;10.846;2024-03-17T03:33:25;101540;;;
74485;BMP280;62942;52.462;10.846;2024-03-17T03:34:35;101540;;;
74485;BMP280;62942;52.462;10.846;2024-03-17T03:35:45;101540;;;
74485;BMP280;62942;52.462;10.846;2024-03-17T03:36:55;101540;;;
74485;BMP280;62942;52.462;10.846;2024-03-17T03:38:05;101540;;;
74485;BMP280;62942;52.462;10.846;2024-03-17T03:39:15;101540;;;
74485;BMP280;62942;52.462;10.846;2024-03-17T03:40:15;101540;;;
74485;BMP280;62942;52.462;10.846;2024-03-17T03:41:15;101540;;;
74485;BMP280;62942;52.462;10.846;2024-03-17T03:42:25;101540;;;
74485;BMP280;62942;52.462;10.846;2024-03-17T03:43:35;101540;;;
74485;BMP280;62942;52.462;10.846;2024-03-17T03:44:35;101540;;;
74485;BMP280;62942;52.462;10.846;2024-03-17T03:45:45;101520;;;
74485;BMP280;62942;52.462;10.846;2024-03-17T03:46:45;101520;;;
74485;BMP280;62942;52.462;10.846;2024-03-17T03:47:55;101520;;;
74485;BMP280;62942;52.462;10.846;2024-03-17T03:48:55;101530;;;
74485;BMP280;62942;52.462;10.846;2024-03-17T03:49:55;101520;;;
74485;BMP280;62942;52.462;10.846;2024-03-17T03:51:05;101520;;;
74485;BMP280;62942;52.462;10.846;2024-03-17T03:52:05;101540;;;
74485;BMP280;62942;52.462;10.846;2024-03-17T03:53:15;101540;;;
74485;BMP280;62942;52.462;10.846;2024-03-17T03:54:15;101540;;;
74485;BMP280;62942;52.462;10.846;2024-03-17T03:55:25;101540;;;
74485;BMP280;62942;52.462;10.846;2024-03-17T03:56:35;101540;;;
74485;BMP280;62942;52.462;10.846;2024-03-17T03:57:35;101540;;;
74485;BMP280;62942;52.462;10.846;2024-03-17T03:58:45;101540;;;
74485;BMP280;62942;52.462;10.846;2024-03-17T03:59:55;101530;;;
74485;BMP280;62942;52.462;10.846;2024-03-17T04:00:55;101540;;;
74485;BMP280;62942;52.462;10.846;2024-03-17T04:02:05;101540;;;
74485;BMP280;62942;52.462;10.846;2024-03-17T04:03:05;101540;;;
74485;BMP280;62942;52.462;10.846;2024-03-17T04:04:15;101530;;;
74485;BMP280;62942;52.462;10.846;2024-03-17T04:05:15;101540;;;
74485;BMP280;62942;52.462;10.846;2024-03-17T04:06:15;101540;;;
74485;BMP280;62942;52.462;10.846;2024-03-17T04:07:15;101530;;;
74485;BMP280;62942;52.462;10.846;2024-03-17T04:08:25;101530;;;
74485;BMP280;62942;52.462;10.846;2024-03-17T04:09:35;101530;;;
74485;BMP280;62942;52.462;10.846;2024-03-17T04:10:45;101540;;;
74485;BMP280;62942;52.462;10.846;2024-03-17T04:11:55;101530;;;
74485;BMP280;62942;52.462;10.846;2024-03-17T04:13:05;101540;;;
74485;BMP280;62942;52.462;10.846;2024-03-17T04:14:05;101540;;;
74485;BMP280;62942;52.462;10.846;2024-03-17T04:15:05;101540;;;
74485;BMP280;62942;52.462;10.846;2024-03-17T04:16:06;101540;;;
74485;BMP280;62942;52.462;10.846;2024-03-17T04:17:15;101550;;;
74485;BMP280;62942;52.462;10.846;2024-03-17T04:18:25;101540;;;
74485;BMP280;62942;52.462;10.846;2024-03-17T04:19:25;101540;;;
74485;BMP280;62942;52.462;10.846;2024-03-17T04:20:25;101540;;;
74485;BMP280;62942;52.462;10.846;2024-03-17T04:21:35;101540;;;
74485;BMP280;62942;52.462;10.846;2024-03-17T04:22:45;101530;;;
74485;BMP280;62942;52.462;10.846;2024-03-17T04:23:45;101540;;;
74485;BMP280;62942;52.462;10.846;2024-03-17T04:24:55;101540;;;
74485;BMP280;62942;52.462;10.846;2024-03-17T04:26:05;101540;;;
74485;BMP280;62942;52.462;10.846;2024-03-17T04:27:05;101540;;;
74485;BMP280;62942;52.462;10.846;2024-03-17T04:28:15;101540;;;
74485;BMP280;62942;52.462;10.846;2024-03-17T04:29:15;101540;;;
74485;BMP280;62942;52.462;10.846;2024-03-17T04:30:25;101550;;;
74485;BMP280;62942;52.462;10.846;2024-03-17T04:31:25;101540;;;
74485;BMP280;62942;52.462;10.846;2024-03-17T04:32:35;101550;;;
74485;BMP280;62942;52.462;10.846;2024-03-17T04:33:45;101550;;;
74485;BMP280;62942;52.462;10.846;2024-03-17T04:34:55;101550;;;
74485;BMP280;62942;52.462;10.846;2024-03-17T04:36:05;101550;;;
74485;BMP280;62942;52.462;10.846;2024-03-17T04:37:15;101550;;;
74485;BMP280;62942;52.462;10.846;2024-03-17T04:38:15;101550;;;
74485;BMP280;62942;52.462;10.846;2024-03-17T04:39:15;101550;;;
74485;BMP280;62942;52.462;10.846;2024-03-17T04:40:25;101540;;;
74485;BMP280;62942;52.462;10.846;2024-03-17T04:41:35;101550;;;
74485;BMP280;62942;52.462;10.846;2024-03-17T04:42:45;101550;;;
74485;BMP280;62942;52.462;10.846;2024-03-17T04:43:45;101540;;;
74485;BMP280;62942;52.462;10.846;2024-03-17T04:44:45;101550;;;
74485;BMP280;62942;52.462;10.846;2024-03-17T04:45:59;101540;;;
74485;BMP280;62942;52.462;10.846;2024-03-17T04:47:05;101550;;;
74485;BMP280;62942;52.462;10.846;2024-03-17T04:48:05;101540;;;
74485;BMP280;62942;52.462;10.846;2024-03-17T04:49:15;101550;;;
74485;BMP280;62942;52.462;10.846;2024-03-17T04:50:25;101550;;;
74485;BMP280;62942;52.462;10.846;2024-03-17T04:51:35;101550;;;
74485;BMP280;62942;52.462;10.846;2024-03-17T04:52:45;101560;;;
74485;BMP280;62942;52.462;10.846;2024-03-17T04:53:45;101550;;;
74485;BMP280;62942;52.462;10.846;2024-03-17T04:54:45;101550;;;
74485;BMP280;62942;52.462;10.846;2024-03-17T04:56:02;101550;;;
74485;BMP280;62942;52.462;10.846;2024-03-17T04:56:55;101550;;;
74485;BMP280;62942;52.462;10.846;2024-03-17T04:57:55;101560;;;
74485;BMP280;62942;52.462;10.846;2024-03-17T04:59:05;101560;;;
74485;BMP280;62942;52.462;10.846;2024-03-17T05:00:06;101560;;;
74485;BMP280;62942;52.462;10.846;2024-03-17T05:01:15;101560;;;
74485;BMP280;62942;52.462;10.846;2024-03-17T05:02:15;101560;;;
74485;BMP280;62942;52.462;10.846;2024-03-17T05:03:25;101570;;;
74485;BMP280;62942;52.462;10.846;2024-03-17T05:04:35;101550;;;
74485;BMP280;62942;52.462;10.846;2024-03-17T05:05:45;101550;;;
74485;BMP280;62942;52.462;10.846;2024-03-17T05:06:55;101550;;;
74485;BMP280;62942;52.462;10.846;2024-03-17T05:07:55;101550;;;
74485;BMP280;62942;52.462;10.846;2024-03-17T05:09:05;101550;;;
74485;BMP280;62942;52.462;10.846;2024-03-17T05:10:15;101550;;;
74485;BMP280;62942;52.462;10.846;2024-03-17T05:11:15;101550;;;
74485;BMP280;62942;52.462;10.846;2024-03-17T05:12:15;101540;;;
74485;BMP280;62942;52.462;10.846;2024-03-17T05:13:15;101550;;;
74485;BMP280;62942;52.462;10.846;2024-03-17T05:14:25;101550;;;
74485;BMP280;62942;52.462;10.846;2024-03-17T05:15:25;101570;;;
74485;BMP280;62942;52.462;10.846;2024-03-17T05:16:35;101570;;;
74485;BMP280;62942;52.462;10.846;2024-03-17T05:17:35;101570;;;
74485;BMP280;62942;52.462;10.846;2024-03-17T05:18:45;101570;;;
74485;BMP280;62942;52.462;10.846;2024-03-17T05:19:45;101570;;;
74485;BMP280;62942;52.462;10.846;2024-03-17T05:20:56;101580;;;
74485;BMP280;62942;52.462;10.846;2024-03-17T05:22:05;101570;;;
74485;BMP280;62942;52.462;10.846;2024-03-17T05:23:15;101570;;;
74485;BMP280;62942;52.462;10.846;2024-03-17T05:24:25;101570;;;
74485;BMP280;62942;52.462;10.846;2024-03-17T05:25:35;101580;;;
74485;BMP280;62942;52.462;10.846;2024-03-17T05:26:45;101580;;;
74485;BMP280;62942;52.462;10.846;2024-03-17T05:27:55;101580;;;
74485;BMP280;62942;52.462;10.846;2024-03-17T05:28:55;101580;;;
74485;BMP280;62942;52.462;10.846;2024-03-17T05:29:55;101580;;;
74485;BMP280;62942;52.462;10.846;2024-03-17T05:31:05;101580;;;
74485;BMP280;62942;52.462;10.846;2024-03-17T05:32:15;101570;;;
74485;BMP280;62942;52.462;10.846;2024-03-17T05:33:25;101570;;;
74485;BMP280;62942;52.462;10.846;2024-03-17T05:34:35;101580;;;
74485;BMP280;62942;52.462;10.846;2024-03-17T05:35:35;101580;;;
74485;BMP280;62942;52.462;10.846;2024-03-17T05:36:45;101580;;;
74485;BMP280;62942;52.462;10.846;2024-03-17T05:37:45;101580;;;
74485;BMP280;62942;52.462;10.846;2024-03-17T05:38:55;101580;;;
74485;BMP280;62942;52.462;10.846;2024-03-17T05:40:05;101580;;;
74485;BMP280;62942;52.462;10.846;2024-03-17T05:41:05;101580;;;
74485;BMP280;62942;52.462;10.846;2024-03-17T05:42:05;101570;;;
74485;BMP280;62942;52.462;10.846;2024-03-17T05:43:05;101580;;;
74485;BMP280;62942;52.462;10.846;2024-03-17T05:44:06;101580;;;
74485;BMP280;62942;52.462;10.846;2024-03-17T05:45:15;101580;;;
74485;BMP280;62942;52.462;10.846;2024-03-17T05:46:15;101580;;;
74485;BMP280;62942;52.462;10.846;2024-03-17T05:47:25;101580;;;
74485;BMP280;62942;52.462;10.846;2024-03-17T05:48:35;101590;;;
74485;BMP280;62942;52.462;10.846;2024-03-17T05:49:45;101580;;;
74485;BMP280;62942;52.462;10.846;2024-03-17T05:50:45;101590;;;
74485;BMP280;62942;52.462;10.846;2024-03-17T05:51:55;101590;;;
74485;BMP280;62942;52.462;10.846;2024-03-17T05:52:55;101590;;;
74485;BMP280;62942;52.462;10.846;2024-03-17T05:54:05;101590;;;
74485;BMP280;62942;52.462;10.846;2024-03-17T05:55:05;101590;;;
74485;BMP280;62942;52.462;10.846;2024-03-17T05:56:15;101600;;;
74485;BMP280;62942;52.462;10.846;2024-03-17T05:57:15;101600;;;
74485;BMP280;62942;52.462;10.846;2024-03-17T05:58:15;101600;;;
74485;BMP280;62942;52.462;10.846;2024-03-17T05:59:25;101590;;;
74485;BMP280;62942;52.462;10.846;2024-03-17T06:00:25;101590;;;
74485;BMP280;62942;52.462;10.846;2024-03-17T06:01:25;101590;;;
74485;BMP280;62942;52.462;10.846;2024-03-17T06:02:35;101600;;;
74485;BMP280;62942;52.462;10.846;2024-03-17T06:03:35;101590;;;
74485;BMP280;62942;52.462;10.846;2024-03-17T06:04:35;101590;;;
74485;BMP280;62942;52.462;10.846;2024-03-17T06:05:35;101590;;;
74485;BMP280;62942;52.462;10.846;2024-03-17T06:06:45;101610;;;
74485;BMP280;62942;52.462;10.846;2024-03-17T06:07:45;101600;;;
74485;BMP280;62942;52.462;10.846;2024-03-17T06:08:55;101600;;;
74485;BMP280;62942;52.462;10.846;2024-03-17T06:10:05;101600;;;
74485;BMP280;62942;52.462;10.846;2024-03-17T06:11:15;101600;;;
74485;BMP280;62942;52.462;10.846;2024-03-17T06:12:25;101600;;;
74485;BMP280;62942;52.462;10.846;2024-03-17T06:13:35;101620;;;
74485;BMP280;62942;52.462;10.846;2024-03-17T06:14:35;101620;;;
74485;BMP280;62942;52.462;10.846;2024-03-17T06:15:37;101620;;;
74485;BMP280;62942;52.462;10.846;2024-03-17T06:16:45;101620;;;
74485;BMP280;62942;52.462;10.846;2024-03-17T06:17:45;101620;;;
74485;BMP280;62942;52.462;10.846;2024-03-17T06:18:55;101620;;;
74485;BMP280;62942;52.462;10.846;2024-03-17T06:20:05;101620;;;
74485;BMP280;62942;52.462;10.846;2024-03-17T06:21:15;101620;;;
74485;BMP280;62942;52.462;10.846;2024-03-17T06:22:15;101630;;;
74485;BMP280;62942;52.462;10.846;2024-03-17T06:23:25;101620;;;
74485;BMP280;62942;52.462;10.846;2024-03-17T06:24:35;101630;;;
74485;BMP280;62942;52.462;10.846;2024-03-17T06:25:37;101630;;;
74485;BMP280;62942;52.462;10.846;2024-03-17T06:26:35;101620;;;
74485;BMP280;62942;52.462;10.846;2024-03-17T06:27:45;101630;;;
74485;BMP280;62942;52.462;10.846;2024-03-17T06:28:45;101630;;;
74485;BMP280;62942;52.462;10.846;2024-03-17T06:29:55;101610;;;
74485;BMP280;62942;52.462;10.846;2024-03-17T06:31:05;101610;;;
74485;BMP280;62942;52.462;10.846;2024-03-17T06:32:15;101610;;;
74485;BMP280;62942;52.462;10.846;2024-03-17T06:33:16;101610;;;
74485;BMP280;62942;52.462;10.846;2024-03-17T06:34:25;101600;;;
74485;BMP280;62942;52.462;10.846;2024-03-17T06:35:35;101610;;;
74485;BMP280;62942;52.462;10.846;2024-03-17T06:36:47;101610;;;
74485;BMP280;62942;52.462;10.846;2024-03-17T06:37:55;101620;;;
74485;BMP280;62942;52.462;10.846;2024-03-17T06:39:05;101620;;;
74485;BMP280;62942;52.462;10.846;2024-03-17T06:40:15;101630;;;
74485;BMP280;62942;52.462;10.846;2024-03-17T06:41:25;101620;;;
74485;BMP280;62942;52.462;10.846;2024-03-17T06:42:35;101620;;;
74485;BMP280;62942;52.462;10.846;2024-03-17T06:43:35;101620;;;
74485;BMP280;62942;52.462;10.846;2024-03-17T06:44:45;101630;;;
74485;BMP280;62942;52.462;10.846;2024-03-17T06:45:55;101630;;;
74485;BMP280;62942;52.462;10.846;2024-03-17T06:47:05;101630;;;
74485;BMP280;62942;52.462;10.846;2024-03-17T06:48:15;101630;;;
74485;BMP280;62942;52.462;10.846;2024-03-17T06:49:25;101640;;;
74485;BMP280;62942;52.462;10.846;2024-03-17T06:50:25;101630;;;
74485;BMP280;62942;52.462;10.846;2024-03-17T06:51:35;101640;;;
74485;BMP280;62942;52.462;10.846;2024-03-17T06:52:45;101630;;;
74485;BMP280;62942;52.462;10.846;2024-03-17T06:53:55;101640;;;